Los Angeles, CA (90078)

11:41 PM PDT on September 18, 2014 (GMT -0700)
Lake Hollywood | Change Station
CLOSE
Current Station
Personal Weather Station
Location: Los Angeles, CA
Elevation: 919 ft
Nearby Weather Stations

Elev 919 ft 34.13 °N, 118.33 °W | Updated 8 minutes ago

Clear
Clear
64.5 °F
Feels Like 64.5 °F
N
0.0
Wind Variable Wind from North
Gusts 1.0 mph

Today
High -- | Low -- °F
--% Chance of Precip.
Yesterday
High -- | Low -- °F
Precip. -- in
6:38 AM 6:55 PM
Waning Crescent, 21% visible
Pressure 29.84 in
Visibility 10.0 miles
Clouds Clear
Dew Point 61 °F
Humidity 87%
Rainfall 0.00 in
Snow Depth 0 in , 0 in , 0 in
UV 0 out of 12
Pollen 6.80 out of 12
Ozone Good
PM2.5 Good
Flu Activity Not available.
METAR KCQT 190547Z AUTO 00000KT 10SM CLR 22/17 A2984 RMK AO2 SLP103 T02170167 10250 20211 51006

More Conditions Fewer Conditions

Pressure 29.84 in
Visibility 10.0 miles
Clouds Clear
Dew Point 61 °F
Humidity 87%
Rainfall 0.00 in
Snow Depth 0 in , 0 in , 0 in
UV 0 out of 12
Pollen 6.80 out of 12
Ozone Good
PM2.5 Good
Flu Activity Not available.
METAR KCQT 190547Z AUTO 00000KT 10SM CLR 22/17 A2984 RMK AO2 SLP103 T02170167 10250 20211 51006

More Conditions Fewer Conditions

10-Day Weather Forecast

Almanac

Astronomy

Sep. 18, 2014 Rise Set
Actual Time 6:38 AM PDT 6:55 PM PDT
Civil Twilight 6:13 AM PDT 7:20 PM PDT
Nautical Twilight 5:44 AM PDT 7:49 PM PDT
Astronomical Twilight 5:14 AM PDT 8:19 PM PDT
Moon 1:45 AM PDT (9/18) 3:40 PM PDT (9/18)
Length of Visible Light 13h 06m
Length of Day
12h 16m
Tomorrow will be 2m 5s shorter.
Waning Crescent, 21% of the Moon is Illuminated
Sep 19
Waning Crescent
Sep 24
New
Oct 1
First Quarter
Oct 8
Full
Oct 15
Last Quarter

Community

WunderPhotos

Upload Photos

1,754,575 photos uploaded!

Nearby

Air Quality

  Air Quality AQ Index Pollutant
Yesterday Good
PM10
Yesterday Good
OZONE
Current Good
PM2.5
Current Good
OZONE
Friday Good
PM10
Friday Good
OZONE
Friday Good
CO
Friday Good
NO2

Snow Depth

Station Depth Elevation
Monitor Pass 0 in 8350 ft
Heavenly Valley 0 in 8850 ft
Tahoe City Cross 0 in 6750 ft
Spratt Creek 1 in 6200 ft
Squaw Valley 0 in 8200 ft

Earthquake Activity

City Distance Mag. Time & Date
Corcoran, California 156 miles 3.0 3:59 PM PDT
2014-09-18
La Quinta, California 115 miles 2.7 8:59 PM PDT
2014-09-15
Minimum magnitude displayed is 2.5.

Coastal Water Temperatures

Place Temperature
Santa Monica Pier 70.0 °F
Los Angeles, CA 66.9 °F
La Jolla, CA 69.1 °F

Nearby Weather Stations